sensor_id;sensor_type;location;lat;lon;timestamp;temperature;humidity
3996;DHT22;2012;49.794;9.722;2022-07-11T00:00:21;17.80;99.90
3996;DHT22;2012;49.794;9.722;2022-07-11T00:02:50;17.80;99.90
3996;DHT22;2012;49.794;9.722;2022-07-11T00:05:18;17.80;99.90
3996;DHT22;2012;49.794;9.722;2022-07-11T00:07:44;17.80;99.90
3996;DHT22;2012;49.794;9.722;2022-07-11T00:10:11;17.80;99.90
3996;DHT22;2012;49.794;9.722;2022-07-11T00:12:38;17.80;99.90
3996;DHT22;2012;49.794;9.722;2022-07-11T00:15:05;17.70;99.90
3996;DHT22;2012;49.794;9.722;2022-07-11T00:17:32;17.80;99.90
3996;DHT22;2012;49.794;9.722;2022-07-11T00:19:58;17.80;99.90
3996;DHT22;2012;49.794;9.722;2022-07-11T00:22:26;17.80;99.90
3996;DHT22;2012;49.794;9.722;2022-07-11T00:24:52;17.80;99.90
3996;DHT22;2012;49.794;9.722;2022-07-11T00:27:19;17.80;99.90
3996;DHT22;2012;49.794;9.722;2022-07-11T00:29:46;17.80;99.90
3996;DHT22;2012;49.794;9.722;2022-07-11T00:32:13;17.80;99.90
3996;DHT22;2012;49.794;9.722;2022-07-11T00:34:39;17.80;99.90
3996;DHT22;2012;49.794;9.722;2022-07-11T00:37:06;17.80;99.90
3996;DHT22;2012;49.794;9.722;2022-07-11T00:39:33;17.80;99.90
3996;DHT22;2012;49.794;9.722;2022-07-11T00:41:59;17.80;99.90
3996;DHT22;2012;49.794;9.722;2022-07-11T00:44:26;17.80;99.90
3996;DHT22;2012;49.794;9.722;2022-07-11T00:46:53;17.70;99.90
3996;DHT22;2012;49.794;9.722;2022-07-11T00:49:21;17.70;99.90
3996;DHT22;2012;49.794;9.722;2022-07-11T00:51:49;17.60;99.90
3996;DHT22;2012;49.794;9.722;2022-07-11T00:54:16;17.60;99.90
3996;DHT22;2012;49.794;9.722;2022-07-11T00:56:43;17.50;99.90
3996;DHT22;2012;49.794;9.722;2022-07-11T00:59:10;17.60;99.90
3996;DHT22;2012;49.794;9.722;2022-07-11T01:01:38;17.50;99.90
3996;DHT22;2012;49.794;9.722;2022-07-11T01:04:05;17.50;99.90
3996;DHT22;2012;49.794;9.722;2022-07-11T01:06:32;17.60;99.90
3996;DHT22;2012;49.794;9.722;2022-07-11T01:08:59;17.60;99.90
3996;DHT22;2012;49.794;9.722;2022-07-11T01:11:26;17.60;99.90
3996;DHT22;2012;49.794;9.722;2022-07-11T01:13:53;17.50;99.90
3996;DHT22;2012;49.794;9.722;2022-07-11T01:16:21;17.60;99.90
3996;DHT22;2012;49.794;9.722;2022-07-11T01:18:53;17.60;99.90
3996;DHT22;2012;49.794;9.722;2022-07-11T01:21:30;17.50;99.90
3996;DHT22;2012;49.794;9.722;2022-07-11T01:24:01;17.40;99.90
3996;DHT22;2012;49.794;9.722;2022-07-11T01:26:29;17.40;99.90
3996;DHT22;2012;49.794;9.722;2022-07-11T01:29:08;17.40;99.90
3996;DHT22;2012;49.794;9.722;2022-07-11T01:31:38;17.50;99.90
3996;DHT22;2012;49.794;9.722;2022-07-11T01:34:05;17.50;99.90
3996;DHT22;2012;49.794;9.722;2022-07-11T01:36:32;17.50;99.90
3996;DHT22;2012;49.794;9.722;2022-07-11T01:38:59;17.50;99.90
3996;DHT22;2012;49.794;9.722;2022-07-11T01:41:25;17.50;99.90
3996;DHT22;2012;49.794;9.722;2022-07-11T01:43:52;17.40;99.90
3996;DHT22;2012;49.794;9.722;2022-07-11T01:46:19;17.50;99.90
3996;DHT22;2012;49.794;9.722;2022-07-11T01:48:48;17.50;99.90
3996;DHT22;2012;49.794;9.722;2022-07-11T01:51:15;17.40;99.90
3996;DHT22;2012;49.794;9.722;2022-07-11T01:53:42;17.40;99.90
3996;DHT22;2012;49.794;9.722;2022-07-11T01:56:09;17.50;99.90
3996;DHT22;2012;49.794;9.722;2022-07-11T01:58:48;17.40;99.90
3996;DHT22;2012;49.794;9.722;2022-07-11T02:01:15;17.40;99.90
3996;DHT22;2012;49.794;9.722;2022-07-11T02:03:42;17.40;99.90
3996;DHT22;2012;49.794;9.722;2022-07-11T02:06:10;17.40;99.90
3996;DHT22;2012;49.794;9.722;2022-07-11T02:08:37;17.40;99.90
3996;DHT22;2012;49.794;9.722;2022-07-11T02:11:03;17.30;99.90
3996;DHT22;2012;49.794;9.722;2022-07-11T02:13:30;17.30;99.90
3996;DHT22;2012;49.794;9.722;2022-07-11T02:15:57;17.30;99.90
3996;DHT22;2012;49.794;9.722;2022-07-11T02:18:24;17.30;99.90
3996;DHT22;2012;49.794;9.722;2022-07-11T02:20:50;17.30;99.90
3996;DHT22;2012;49.794;9.722;2022-07-11T02:23:18;17.30;99.90
3996;DHT22;2012;49.794;9.722;2022-07-11T02:25:46;17.30;99.90
3996;DHT22;2012;49.794;9.722;2022-07-11T02:28:13;17.30;99.90
3996;DHT22;2012;49.794;9.722;2022-07-11T02:30:41;17.30;99.90
3996;DHT22;2012;49.794;9.722;2022-07-11T02:33:09;17.30;99.90
3996;DHT22;2012;49.794;9.722;2022-07-11T02:35:40;17.30;99.90
3996;DHT22;2012;49.794;9.722;2022-07-11T02:38:08;17.30;99.90
3996;DHT22;2012;49.794;9.722;2022-07-11T02:40:35;17.30;99.90
3996;DHT22;2012;49.794;9.722;2022-07-11T02:43:01;17.20;99.90
3996;DHT22;2012;49.794;9.722;2022-07-11T02:45:28;17.10;99.90
3996;DHT22;2012;49.794;9.722;2022-07-11T02:47:55;17.20;99.90
3996;DHT22;2012;49.794;9.722;2022-07-11T02:50:21;17.20;99.90
3996;DHT22;2012;49.794;9.722;2022-07-11T02:52:48;17.20;99.90
3996;DHT22;2012;49.794;9.722;2022-07-11T02:55:15;17.20;99.90
3996;DHT22;2012;49.794;9.722;2022-07-11T02:57:42;17.20;99.90
3996;DHT22;2012;49.794;9.722;2022-07-11T03:00:17;17.20;99.90
3996;DHT22;2012;49.794;9.722;2022-07-11T03:02:44;17.20;99.90
3996;DHT22;2012;49.794;9.722;2022-07-11T03:05:11;17.30;99.90
3996;DHT22;2012;49.794;9.722;2022-07-11T03:07:39;17.30;99.90
3996;DHT22;2012;49.794;9.722;2022-07-11T03:10:06;17.30;99.90
3996;DHT22;2012;49.794;9.722;2022-07-11T03:12:33;17.30;99.90
3996;DHT22;2012;49.794;9.722;2022-07-11T03:15:00;17.30;99.90
3996;DHT22;2012;49.794;9.722;2022-07-11T03:17:27;17.30;99.90
3996;DHT22;2012;49.794;9.722;2022-07-11T03:19:54;17.30;99.90
3996;DHT22;2012;49.794;9.722;2022-07-11T03:22:20;17.30;99.90
3996;DHT22;2012;49.794;9.722;2022-07-11T03:24:49;17.20;99.90
3996;DHT22;2012;49.794;9.722;2022-07-11T03:27:17;17.20;99.90
3996;DHT22;2012;49.794;9.722;2022-07-11T03:29:44;17.20;99.90
3996;DHT22;2012;49.794;9.722;2022-07-11T03:32:10;17.20;99.90
3996;DHT22;2012;49.794;9.722;2022-07-11T03:34:37;17.20;99.90
3996;DHT22;2012;49.794;9.722;2022-07-11T03:37:04;17.20;99.90
3996;DHT22;2012;49.794;9.722;2022-07-11T03:39:31;17.10;99.90
3996;DHT22;2012;49.794;9.722;2022-07-11T03:41:58;17.10;99.90
3996;DHT22;2012;49.794;9.722;2022-07-11T03:44:25;17.10;99.90
3996;DHT22;2012;49.794;9.722;2022-07-11T03:46:52;17.10;99.90
3996;DHT22;2012;49.794;9.722;2022-07-11T03:49:18;17.10;99.90
3996;DHT22;2012;49.794;9.722;2022-07-11T03:51:45;17.20;99.90
3996;DHT22;2012;49.794;9.722;2022-07-11T03:54:12;17.20;99.90
3996;DHT22;2012;49.794;9.722;2022-07-11T03:56:39;17.20;99.90
3996;DHT22;2012;49.794;9.722;2022-07-11T03:59:06;17.20;99.90
3996;DHT22;2012;49.794;9.722;2022-07-11T04:01:33;17.20;99.90
3996;DHT22;2012;49.794;9.722;2022-07-11T04:04:00;17.20;99.90
3996;DHT22;2012;49.794;9.722;2022-07-11T04:06:26;17.20;99.90
3996;DHT22;2012;49.794;9.722;2022-07-11T04:08:54;17.10;99.90
3996;DHT22;2012;49.794;9.722;2022-07-11T04:11:20;17.20;99.90
3996;DHT22;2012;49.794;9.722;2022-07-11T04:13:47;17.20;99.90
3996;DHT22;2012;49.794;9.722;2022-07-11T04:16:14;17.20;99.90
3996;DHT22;2012;49.794;9.722;2022-07-11T04:18:41;17.10;99.90
3996;DHT22;2012;49.794;9.722;2022-07-11T04:21:08;17.10;99.90
3996;DHT22;2012;49.794;9.722;2022-07-11T04:23:35;17.20;99.90
3996;DHT22;2012;49.794;9.722;2022-07-11T04:26:03;17.20;99.90
3996;DHT22;2012;49.794;9.722;2022-07-11T04:28:29;17.20;99.90
3996;DHT22;2012;49.794;9.722;2022-07-11T04:30:57;17.20;99.90
3996;DHT22;2012;49.794;9.722;2022-07-11T04:33:24;17.20;99.90
3996;DHT22;2012;49.794;9.722;2022-07-11T04:35:51;17.20;99.90
3996;DHT22;2012;49.794;9.722;2022-07-11T04:38:17;17.20;99.90
3996;DHT22;2012;49.794;9.722;2022-07-11T04:40:48;17.10;99.90
3996;DHT22;2012;49.794;9.722;2022-07-11T04:43:16;17.10;99.90
3996;DHT22;2012;49.794;9.722;2022-07-11T04:45:43;17.10;99.90
3996;DHT22;2012;49.794;9.722;2022-07-11T04:48:10;17.10;99.90
3996;DHT22;2012;49.794;9.722;2022-07-11T04:50:37;17.10;99.90
3996;DHT22;2012;49.794;9.722;2022-07-11T04:53:03;17.20;99.90
3996;DHT22;2012;49.794;9.722;2022-07-11T04:55:30;17.30;99.90
3996;DHT22;2012;49.794;9.722;2022-07-11T04:57:57;17.20;99.90
3996;DHT22;2012;49.794;9.722;2022-07-11T05:00:24;17.20;99.90
3996;DHT22;2012;49.794;9.722;2022-07-11T05:02:51;17.20;99.90
3996;DHT22;2012;49.794;9.722;2022-07-11T05:05:18;17.30;99.90
3996;DHT22;2012;49.794;9.722;2022-07-11T05:07:46;17.20;99.90
3996;DHT22;2012;49.794;9.722;2022-07-11T05:10:13;17.20;99.90
3996;DHT22;2012;49.794;9.722;2022-07-11T05:12:40;17.30;99.90
3996;DHT22;2012;49.794;9.722;2022-07-11T05:15:07;17.20;99.90
3996;DHT22;2012;49.794;9.722;2022-07-11T05:17:34;17.30;99.90
3996;DHT22;2012;49.794;9.722;2022-07-11T05:20:02;17.20;99.90
3996;DHT22;2012;49.794;9.722;2022-07-11T05:22:29;17.20;99.90
3996;DHT22;2012;49.794;9.722;2022-07-11T05:24:55;17.20;99.90
3996;DHT22;2012;49.794;9.722;2022-07-11T05:27:22;17.20;99.90
3996;DHT22;2012;49.794;9.722;2022-07-11T05:29:49;17.30;99.90
3996;DHT22;2012;49.794;9.722;2022-07-11T05:32:16;17.20;99.90
3996;DHT22;2012;49.794;9.722;2022-07-11T05:34:42;17.20;99.90
3996;DHT22;2012;49.794;9.722;2022-07-11T05:37:09;17.20;99.90
3996;DHT22;2012;49.794;9.722;2022-07-11T05:39:36;17.30;99.90
3996;DHT22;2012;49.794;9.722;2022-07-11T05:42:02;17.30;99.90
3996;DHT22;2012;49.794;9.722;2022-07-11T05:44:29;17.30;99.90
3996;DHT22;2012;49.794;9.722;2022-07-11T05:47:02;17.30;99.90
3996;DHT22;2012;49.794;9.722;2022-07-11T05:49:31;17.20;99.90
3996;DHT22;2012;49.794;9.722;2022-07-11T05:51:58;17.30;99.90
3996;DHT22;2012;49.794;9.722;2022-07-11T05:54:26;17.20;99.90
3996;DHT22;2012;49.794;9.722;2022-07-11T05:56:53;17.20;99.90
3996;DHT22;2012;49.794;9.722;2022-07-11T05:59:20;17.30;99.90
3996;DHT22;2012;49.794;9.722;2022-07-11T06:01:47;17.30;99.90
3996;DHT22;2012;49.794;9.722;2022-07-11T06:04:14;17.30;99.90
3996;DHT22;2012;49.794;9.722;2022-07-11T06:06:41;17.40;99.90
3996;DHT22;2012;49.794;9.722;2022-07-11T06:09:08;17.50;99.90
3996;DHT22;2012;49.794;9.722;2022-07-11T06:11:34;17.40;99.90
3996;DHT22;2012;49.794;9.722;2022-07-11T06:14:01;17.40;99.90
3996;DHT22;2012;49.794;9.722;2022-07-11T06:16:28;17.40;99.90
3996;DHT22;2012;49.794;9.722;2022-07-11T06:18:55;17.40;99.90
3996;DHT22;2012;49.794;9.722;2022-07-11T06:21:22;17.50;99.90
3996;DHT22;2012;49.794;9.722;2022-07-11T06:23:49;17.60;99.90
3996;DHT22;2012;49.794;9.722;2022-07-11T06:26:16;17.70;99.90
3996;DHT22;2012;49.794;9.722;2022-07-11T06:28:43;17.70;99.90
3996;DHT22;2012;49.794;9.722;2022-07-11T06:31:10;17.70;99.90
3996;DHT22;2012;49.794;9.722;2022-07-11T06:33:37;17.70;99.90
3996;DHT22;2012;49.794;9.722;2022-07-11T06:36:05;17.80;99.90
3996;DHT22;2012;49.794;9.722;2022-07-11T06:38:33;17.70;99.90
3996;DHT22;2012;49.794;9.722;2022-07-11T06:41:00;17.60;99.90
3996;DHT22;2012;49.794;9.722;2022-07-11T06:43:30;17.70;99.90
3996;DHT22;2012;49.794;9.722;2022-07-11T06:45:57;17.80;99.90
3996;DHT22;2012;49.794;9.722;2022-07-11T06:48:23;18.00;99.90
3996;DHT22;2012;49.794;9.722;2022-07-11T06:50:52;18.00;99.90
3996;DHT22;2012;49.794;9.722;2022-07-11T06:53:20;17.80;99.90
3996;DHT22;2012;49.794;9.722;2022-07-11T06:55:47;17.90;99.90
3996;DHT22;2012;49.794;9.722;2022-07-11T06:58:13;18.10;99.90
3996;DHT22;2012;49.794;9.722;2022-07-11T07:01:03;18.00;99.90
3996;DHT22;2012;49.794;9.722;2022-07-11T07:03:32;17.90;99.90
3996;DHT22;2012;49.794;9.722;2022-07-11T07:06:00;18.00;99.90
3996;DHT22;2012;49.794;9.722;2022-07-11T07:08:29;18.00;99.90
3996;DHT22;2012;49.794;9.722;2022-07-11T07:10:56;17.90;99.90
3996;DHT22;2012;49.794;9.722;2022-07-11T07:13:23;17.90;99.90
3996;DHT22;2012;49.794;9.722;2022-07-11T07:15:56;18.10;99.90
3996;DHT22;2012;49.794;9.722;2022-07-11T07:18:26;18.20;99.90
3996;DHT22;2012;49.794;9.722;2022-07-11T07:20:52;18.20;99.90
3996;DHT22;2012;49.794;9.722;2022-07-11T07:23:20;18.20;99.90
3996;DHT22;2012;49.794;9.722;2022-07-11T07:25:47;18.20;99.90
3996;DHT22;2012;49.794;9.722;2022-07-11T07:28:13;18.20;99.90
3996;DHT22;2012;49.794;9.722;2022-07-11T07:30:40;18.30;99.90
3996;DHT22;2012;49.794;9.722;2022-07-11T07:33:07;18.30;99.90
3996;DHT22;2012;49.794;9.722;2022-07-11T07:35:34;18.40;99.90
3996;DHT22;2012;49.794;9.722;2022-07-11T07:38:01;18.40;99.90
3996;DHT22;2012;49.794;9.722;2022-07-11T07:40:27;18.40;99.90
3996;DHT22;2012;49.794;9.722;2022-07-11T07:42:55;18.40;99.90
3996;DHT22;2012;49.794;9.722;2022-07-11T07:45:22;18.40;99.90
3996;DHT22;2012;49.794;9.722;2022-07-11T07:47:49;18.30;99.90
3996;DHT22;2012;49.794;9.722;2022-07-11T07:50:16;18.30;99.90
3996;DHT22;2012;49.794;9.722;2022-07-11T07:52:43;18.30;99.90
3996;DHT22;2012;49.794;9.722;2022-07-11T07:55:10;18.30;99.90
3996;DHT22;2012;49.794;9.722;2022-07-11T07:57:37;18.40;99.90
3996;DHT22;2012;49.794;9.722;2022-07-11T08:00:04;18.40;99.90
3996;DHT22;2012;49.794;9.722;2022-07-11T08:02:50;18.40;99.90
3996;DHT22;2012;49.794;9.722;2022-07-11T08:05:18;18.40;99.90
3996;DHT22;2012;49.794;9.722;2022-07-11T08:07:45;18.40;99.90
3996;DHT22;2012;49.794;9.722;2022-07-11T08:10:12;18.50;99.90
3996;DHT22;2012;49.794;9.722;2022-07-11T08:12:41;18.60;99.90
3996;DHT22;2012;49.794;9.722;2022-07-11T08:15:08;18.60;99.90
3996;DHT22;2012;49.794;9.722;2022-07-11T08:17:35;18.70;99.90
3996;DHT22;2012;49.794;9.722;2022-07-11T08:20:03;18.60;99.90
3996;DHT22;2012;49.794;9.722;2022-07-11T08:22:30;18.60;99.90
3996;DHT22;2012;49.794;9.722;2022-07-11T08:24:56;18.60;99.90
3996;DHT22;2012;49.794;9.722;2022-07-11T08:27:23;18.70;99.90
3996;DHT22;2012;49.794;9.722;2022-07-11T08:30:08;18.80;99.90
3996;DHT22;2012;49.794;9.722;2022-07-11T08:32:39;18.80;99.90
3996;DHT22;2012;49.794;9.722;2022-07-11T08:35:08;18.90;99.90
3996;DHT22;2012;49.794;9.722;2022-07-11T08:37:35;18.80;99.90
3996;DHT22;2012;49.794;9.722;2022-07-11T08:40:03;18.80;99.90
3996;DHT22;2012;49.794;9.722;2022-07-11T08:42:30;18.90;99.90
3996;DHT22;2012;49.794;9.722;2022-07-11T08:44:57;19.00;99.90
3996;DHT22;2012;49.794;9.722;2022-07-11T08:47:24;19.00;99.90
3996;DHT22;2012;49.794;9.722;2022-07-11T08:49:52;19.10;99.90
3996;DHT22;2012;49.794;9.722;2022-07-11T08:52:19;19.10;99.90
3996;DHT22;2012;49.794;9.722;2022-07-11T08:54:46;19.20;99.90
3996;DHT22;2012;49.794;9.722;2022-07-11T08:57:13;19.20;99.90
3996;DHT22;2012;49.794;9.722;2022-07-11T08:59:40;19.20;99.90
3996;DHT22;2012;49.794;9.722;2022-07-11T09:02:09;19.20;99.90
3996;DHT22;2012;49.794;9.722;2022-07-11T09:04:36;19.30;99.90
3996;DHT22;2012;49.794;9.722;2022-07-11T09:07:03;19.40;99.90
3996;DHT22;2012;49.794;9.722;2022-07-11T09:09:30;19.40;99.90
3996;DHT22;2012;49.794;9.722;2022-07-11T09:11:57;19.40;99.90
3996;DHT22;2012;49.794;9.722;2022-07-11T09:14:26;19.50;99.90
3996;DHT22;2012;49.794;9.722;2022-07-11T09:17:01;19.50;99.90
3996;DHT22;2012;49.794;9.722;2022-07-11T09:19:30;19.60;99.90
3996;DHT22;2012;49.794;9.722;2022-07-11T09:22:02;19.60;99.90
3996;DHT22;2012;49.794;9.722;2022-07-11T09:25:10;19.60;99.90
3996;DHT22;2012;49.794;9.722;2022-07-11T09:28:04;19.60;99.90
3996;DHT22;2012;49.794;9.722;2022-07-11T09:30:33;19.70;99.90
3996;DHT22;2012;49.794;9.722;2022-07-11T09:33:06;19.70;99.90
3996;DHT22;2012;49.794;9.722;2022-07-11T09:35:35;19.70;99.90
3996;DHT22;2012;49.794;9.722;2022-07-11T09:38:03;19.90;99.90
3996;DHT22;2012;49.794;9.722;2022-07-11T09:40:30;19.90;99.90
3996;DHT22;2012;49.794;9.722;2022-07-11T09:42:58;19.90;99.90
3996;DHT22;2012;49.794;9.722;2022-07-11T09:45:30;20.00;99.90
3996;DHT22;2012;49.794;9.722;2022-07-11T09:48:10;19.90;99.90
3996;DHT22;2012;49.794;9.722;2022-07-11T09:50:37;20.00;99.90
3996;DHT22;2012;49.794;9.722;2022-07-11T09:53:09;20.00;99.90
3996;DHT22;2012;49.794;9.722;2022-07-11T09:55:42;19.90;99.90
3996;DHT22;2012;49.794;9.722;2022-07-11T09:58:18;19.80;99.90
3996;DHT22;2012;49.794;9.722;2022-07-11T10:00:48;19.90;99.90
3996;DHT22;2012;49.794;9.722;2022-07-11T10:03:20;19.90;99.90
3996;DHT22;2012;49.794;9.722;2022-07-11T10:06:07;20.00;99.90
3996;DHT22;2012;49.794;9.722;2022-07-11T10:08:34;20.00;99.90
3996;DHT22;2012;49.794;9.722;2022-07-11T10:11:01;20.00;99.90
3996;DHT22;2012;49.794;9.722;2022-07-11T10:13:29;20.00;99.90
3996;DHT22;2012;49.794;9.722;2022-07-11T10:15:58;20.00;99.90
3996;DHT22;2012;49.794;9.722;2022-07-11T10:18:44;20.10;99.90
3996;DHT22;2012;49.794;9.722;2022-07-11T10:21:28;20.10;99.90
3996;DHT22;2012;49.794;9.722;2022-07-11T10:24:06;20.20;99.90
3996;DHT22;2012;49.794;9.722;2022-07-11T10:26:54;20.20;99.90
3996;DHT22;2012;49.794;9.722;2022-07-11T10:29:31;20.20;99.90
3996;DHT22;2012;49.794;9.722;2022-07-11T10:32:10;20.10;99.90
3996;DHT22;2012;49.794;9.722;2022-07-11T10:34:41;20.10;99.90
3996;DHT22;2012;49.794;9.722;2022-07-11T10:37:08;20.10;99.90
3996;DHT22;2012;49.794;9.722;2022-07-11T10:39:37;20.20;99.90
3996;DHT22;2012;49.794;9.722;2022-07-11T10:42:05;20.40;99.90
3996;DHT22;2012;49.794;9.722;2022-07-11T10:44:54;20.40;99.90
3996;DHT22;2012;49.794;9.722;2022-07-11T10:47:38;20.60;99.90
3996;DHT22;2012;49.794;9.722;2022-07-11T10:52:56;20.60;99.90
3996;DHT22;2012;49.794;9.722;2022-07-11T10:58:20;20.50;99.90
3996;DHT22;2012;49.794;9.722;2022-07-11T11:03:38;20.30;99.90
3996;DHT22;2012;49.794;9.722;2022-07-11T11:06:05;20.30;99.90
3996;DHT22;2012;49.794;9.722;2022-07-11T11:11:01;20.30;99.90
3996;DHT22;2012;49.794;9.722;2022-07-11T11:13:29;20.40;99.90
3996;DHT22;2012;49.794;9.722;2022-07-11T11:15:58;20.40;99.90
3996;DHT22;2012;49.794;9.722;2022-07-11T11:26:42;20.80;99.90
3996;DHT22;2012;49.794;9.722;2022-07-11T11:29:09;20.60;99.90
3996;DHT22;2012;49.794;9.722;2022-07-11T11:31:36;20.80;99.90
3996;DHT22;2012;49.794;9.722;2022-07-11T11:34:03;21.00;99.90
3996;DHT22;2012;49.794;9.722;2022-07-11T11:36:30;21.20;99.90
3996;DHT22;2012;49.794;9.722;2022-07-11T11:38:57;21.00;99.90
3996;DHT22;2012;49.794;9.722;2022-07-11T11:41:26;20.90;99.90
3996;DHT22;2012;49.794;9.722;2022-07-11T11:43:55;21.20;99.90
3996;DHT22;2012;49.794;9.722;2022-07-11T11:46:29;21.20;99.90
3996;DHT22;2012;49.794;9.722;2022-07-11T11:48:57;21.10;99.90
3996;DHT22;2012;49.794;9.722;2022-07-11T11:51:27;21.30;99.90
3996;DHT22;2012;49.794;9.722;2022-07-11T11:53:56;21.50;99.90
3996;DHT22;2012;49.794;9.722;2022-07-11T11:56:25;21.50;99.90
3996;DHT22;2012;49.794;9.722;2022-07-11T11:59:06;21.50;99.90
3996;DHT22;2012;49.794;9.722;2022-07-11T12:01:45;21.30;99.90
3996;DHT22;2012;49.794;9.722;2022-07-11T12:04:14;21.20;99.90
3996;DHT22;2012;49.794;9.722;2022-07-11T12:06:48;21.20;99.90
3996;DHT22;2012;49.794;9.722;2022-07-11T12:09:19;21.10;99.90
3996;DHT22;2012;49.794;9.722;2022-07-11T12:11:48;21.00;99.90
3996;DHT22;2012;49.794;9.722;2022-07-11T12:14:15;21.00;99.90
3996;DHT22;2012;49.794;9.722;2022-07-11T12:16:46;21.00;99.90
3996;DHT22;2012;49.794;9.722;2022-07-11T12:19:23;21.00;99.90
3996;DHT22;2012;49.794;9.722;2022-07-11T12:21:54;21.10;99.90
3996;DHT22;2012;49.794;9.722;2022-07-11T12:24:23;21.20;99.90
3996;DHT22;2012;49.794;9.722;2022-07-11T12:26:50;21.40;99.90
3996;DHT22;2012;49.794;9.722;2022-07-11T12:29:19;21.50;99.90
3996;DHT22;2012;49.794;9.722;2022-07-11T12:32:01;21.50;99.90
3996;DHT22;2012;49.794;9.722;2022-07-11T12:37:07;21.40;99.90
3996;DHT22;2012;49.794;9.722;2022-07-11T12:39:37;21.50;99.90
3996;DHT22;2012;49.794;9.722;2022-07-11T12:42:31;21.50;99.90
3996;DHT22;2012;49.794;9.722;2022-07-11T12:45:04;21.50;99.90
3996;DHT22;2012;49.794;9.722;2022-07-11T12:47:42;21.40;99.90
3996;DHT22;2012;49.794;9.722;2022-07-11T12:52:42;21.30;99.90
3996;DHT22;2012;49.794;9.722;2022-07-11T12:55:25;21.30;99.90
3996;DHT22;2012;49.794;9.722;2022-07-11T13:00:29;21.30;99.90
3996;DHT22;2012;49.794;9.722;2022-07-11T13:02:59;21.30;99.90
3996;DHT22;2012;49.794;9.722;2022-07-11T13:05:26;21.20;99.90
3996;DHT22;2012;49.794;9.722;2022-07-11T13:07:52;21.20;99.90
3996;DHT22;2012;49.794;9.722;2022-07-11T13:10:38;21.20;99.90
3996;DHT22;2012;49.794;9.722;2022-07-11T13:13:32;21.40;99.90
3996;DHT22;2012;49.794;9.722;2022-07-11T13:15:58;21.40;99.90
3996;DHT22;2012;49.794;9.722;2022-07-11T13:18:25;21.30;99.90
3996;DHT22;2012;49.794;9.722;2022-07-11T13:20:52;21.40;99.90
3996;DHT22;2012;49.794;9.722;2022-07-11T13:23:21;21.50;99.90
3996;DHT22;2012;49.794;9.722;2022-07-11T13:25:48;21.50;99.90
3996;DHT22;2012;49.794;9.722;2022-07-11T13:28:15;21.60;99.90
3996;DHT22;2012;49.794;9.722;2022-07-11T13:30:42;21.70;99.90
3996;DHT22;2012;49.794;9.722;2022-07-11T13:33:28;21.70;99.90
3996;DHT22;2012;49.794;9.722;2022-07-11T13:35:55;21.80;99.90
3996;DHT22;2012;49.794;9.722;2022-07-11T13:38:22;21.80;99.90
3996;DHT22;2012;49.794;9.722;2022-07-11T13:40:50;21.90;99.90
3996;DHT22;2012;49.794;9.722;2022-07-11T13:43:16;22.00;99.90
3996;DHT22;2012;49.794;9.722;2022-07-11T13:45:44;22.10;99.90
3996;DHT22;2012;49.794;9.722;2022-07-11T13:48:11;22.30;99.90
3996;DHT22;2012;49.794;9.722;2022-07-11T13:50:38;22.50;99.90
3996;DHT22;2012;49.794;9.722;2022-07-11T13:53:05;22.70;99.90
3996;DHT22;2012;49.794;9.722;2022-07-11T13:55:31;22.90;99.90
3996;DHT22;2012;49.794;9.722;2022-07-11T13:58:00;23.20;99.90
3996;DHT22;2012;49.794;9.722;2022-07-11T14:00:28;23.30;99.90
3996;DHT22;2012;49.794;9.722;2022-07-11T14:02:56;23.30;99.90
3996;DHT22;2012;49.794;9.722;2022-07-11T14:05:23;23.00;99.90
3996;DHT22;2012;49.794;9.722;2022-07-11T14:07:49;23.00;99.90
3996;DHT22;2012;49.794;9.722;2022-07-11T14:10:17;23.00;99.90
3996;DHT22;2012;49.794;9.722;2022-07-11T14:12:44;23.00;99.90
3996;DHT22;2012;49.794;9.722;2022-07-11T14:15:11;22.90;99.90
3996;DHT22;2012;49.794;9.722;2022-07-11T14:17:38;22.90;99.90
3996;DHT22;2012;49.794;9.722;2022-07-11T14:20:05;22.90;99.90
3996;DHT22;2012;49.794;9.722;2022-07-11T14:22:32;22.90;99.90
3996;DHT22;2012;49.794;9.722;2022-07-11T14:24:59;22.90;99.90
3996;DHT22;2012;49.794;9.722;2022-07-11T14:27:26;23.00;99.90
3996;DHT22;2012;49.794;9.722;2022-07-11T14:29:53;23.20;99.70
3996;DHT22;2012;49.794;9.722;2022-07-11T14:32:20;23.30;99.00
3996;DHT22;2012;49.794;9.722;2022-07-11T14:34:47;23.30;99.20
3996;DHT22;2012;49.794;9.722;2022-07-11T14:37:14;23.30;98.30
3996;DHT22;2012;49.794;9.722;2022-07-11T14:39:41;23.30;98.50
3996;DHT22;2012;49.794;9.722;2022-07-11T14:42:08;23.40;98.10
3996;DHT22;2012;49.794;9.722;2022-07-11T14:44:55;23.30;96.70
3996;DHT22;2012;49.794;9.722;2022-07-11T14:47:21;23.30;95.80
3996;DHT22;2012;49.794;9.722;2022-07-11T14:49:48;23.30;95.80
3996;DHT22;2012;49.794;9.722;2022-07-11T14:52:15;23.40;96.10
3996;DHT22;2012;49.794;9.722;2022-07-11T14:54:41;23.30;95.40
3996;DHT22;2012;49.794;9.722;2022-07-11T14:57:08;23.30;95.50
3996;DHT22;2012;49.794;9.722;2022-07-11T14:59:35;23.40;96.00
3996;DHT22;2012;49.794;9.722;2022-07-11T15:02:02;23.80;95.80
3996;DHT22;2012;49.794;9.722;2022-07-11T15:04:29;24.20;94.70
3996;DHT22;2012;49.794;9.722;2022-07-11T15:06:56;24.20;93.90
3996;DHT22;2012;49.794;9.722;2022-07-11T15:09:41;24.20;93.30
3996;DHT22;2012;49.794;9.722;2022-07-11T15:12:27;24.10;92.80
3996;DHT22;2012;49.794;9.722;2022-07-11T15:14:55;23.90;92.80
3996;DHT22;2012;49.794;9.722;2022-07-11T15:17:22;23.90;94.00
3996;DHT22;2012;49.794;9.722;2022-07-11T15:19:49;23.70;94.00
3996;DHT22;2012;49.794;9.722;2022-07-11T15:22:16;23.60;93.60
3996;DHT22;2012;49.794;9.722;2022-07-11T15:24:45;23.60;93.00
3996;DHT22;2012;49.794;9.722;2022-07-11T15:27:12;23.60;93.00
3996;DHT22;2012;49.794;9.722;2022-07-11T15:29:39;23.60;93.70
3996;DHT22;2012;49.794;9.722;2022-07-11T15:32:06;23.50;94.30
3996;DHT22;2012;49.794;9.722;2022-07-11T15:34:33;23.60;95.20
3996;DHT22;2012;49.794;9.722;2022-07-11T15:37:00;23.90;94.80
3996;DHT22;2012;49.794;9.722;2022-07-11T15:39:27;24.00;94.60
3996;DHT22;2012;49.794;9.722;2022-07-11T15:41:53;23.90;94.60
3996;DHT22;2012;49.794;9.722;2022-07-11T15:44:20;23.70;94.00
3996;DHT22;2012;49.794;9.722;2022-07-11T15:46:47;23.70;93.90
3996;DHT22;2012;49.794;9.722;2022-07-11T15:49:15;23.60;94.70
3996;DHT22;2012;49.794;9.722;2022-07-11T15:51:41;23.60;95.00
3996;DHT22;2012;49.794;9.722;2022-07-11T15:54:08;23.50;95.30
3996;DHT22;2012;49.794;9.722;2022-07-11T15:56:35;23.60;95.10
3996;DHT22;2012;49.794;9.722;2022-07-11T15:59:02;23.70;94.80
3996;DHT22;2012;49.794;9.722;2022-07-11T16:01:28;23.60;94.90
3996;DHT22;2012;49.794;9.722;2022-07-11T16:04:03;23.70;95.40
3996;DHT22;2012;49.794;9.722;2022-07-11T16:06:30;23.90;95.10
3996;DHT22;2012;49.794;9.722;2022-07-11T16:08:59;24.20;94.10
3996;DHT22;2012;49.794;9.722;2022-07-11T16:11:26;24.00;93.50
3996;DHT22;2012;49.794;9.722;2022-07-11T16:13:53;23.90;93.60
3996;DHT22;2012;49.794;9.722;2022-07-11T16:16:22;23.80;93.90
3996;DHT22;2012;49.794;9.722;2022-07-11T16:18:50;23.70;94.10
3996;DHT22;2012;49.794;9.722;2022-07-11T16:21:19;23.70;94.10
3996;DHT22;2012;49.794;9.722;2022-07-11T16:23:46;23.70;93.90
3996;DHT22;2012;49.794;9.722;2022-07-11T16:26:14;23.70;93.80
3996;DHT22;2012;49.794;9.722;2022-07-11T16:28:43;23.70;94.00
3996;DHT22;2012;49.794;9.722;2022-07-11T16:31:10;23.60;94.30
3996;DHT22;2012;49.794;9.722;2022-07-11T16:33:38;23.60;94.80
3996;DHT22;2012;49.794;9.722;2022-07-11T16:36:06;23.30;94.80
3996;DHT22;2012;49.794;9.722;2022-07-11T16:38:34;23.30;95.50